createdAt,value
2022-09-13T00:01:26.578Z,37.57
2022-09-13T00:07:49.415Z,37.54
2022-09-13T00:14:09.518Z,37.59
2022-09-13T00:20:39.456Z,37.55
2022-09-13T00:27:15.460Z,37.51
2022-09-13T00:33:46.458Z,37.5
2022-09-13T00:40:16.694Z,37.52
2022-09-13T00:46:58.466Z,37.62
2022-09-13T00:53:49.337Z,37.48
2022-09-13T01:00:36.448Z,37.42
2022-09-13T01:07:11.598Z,37.59
2022-09-13T01:14:05.817Z,37.58
2022-09-13T01:20:39.324Z,37.6
2022-09-13T01:27:40.527Z,37.71
2022-09-13T01:34:51.830Z,37.76
2022-09-13T01:42:10.922Z,37.7
2022-09-13T01:49:13.938Z,37.72
2022-09-13T01:56:27.541Z,37.69
2022-09-13T02:03:33.499Z,37.65
2022-09-13T02:10:42.465Z,37.7
2022-09-13T02:17:45.529Z,37.73
2022-09-13T02:25:00.641Z,37.74
2022-09-13T02:32:00.706Z,37.66
2022-09-13T02:38:58.232Z,37.61
2022-09-13T02:46:05.614Z,37.45
2022-09-13T02:53:17.518Z,37.53
2022-09-13T03:00:27.598Z,37.52
2022-09-13T03:07:05.466Z,37.47
2022-09-13T03:14:05.576Z,37.51
2022-09-13T03:21:02.527Z,37.52
2022-09-13T03:27:57.604Z,37.57
2022-09-13T03:34:52.511Z,37.5
2022-09-13T03:42:10.120Z,37.51
2022-09-13T03:49:07.863Z,37.46
2022-09-13T03:55:46.536Z,37.43
2022-09-13T04:02:19.757Z,37.52
2022-09-13T04:08:49.938Z,37.55
2022-09-13T04:15:18.525Z,37.48
2022-09-13T04:21:45.972Z,37.47
2022-09-13T04:28:18.568Z,37.43
2022-09-13T04:34:54.151Z,37.5
2022-09-13T04:41:32.549Z,37.51
2022-09-13T04:48:04.532Z,37.49
2022-09-13T04:54:42.109Z,37.5
2022-09-13T05:01:10.283Z,37.44
2022-09-13T05:07:37.013Z,37.44
2022-09-13T05:14:11.020Z,37.41
2022-09-13T05:20:34.754Z,37.43
2022-09-13T05:27:08.936Z,37.45
2022-09-13T05:33:47.027Z,37.41
2022-09-13T05:40:20.808Z,37.42
2022-09-13T05:46:48.684Z,37.39
2022-09-13T05:53:24.498Z,37.45
2022-09-13T05:59:55.801Z,37.44
2022-09-13T06:06:33.931Z,37.41
2022-09-13T06:13:02.589Z,37.46
2022-09-13T06:19:30.652Z,37.38
2022-09-13T06:26:07.680Z,37.41
2022-09-13T06:32:31.063Z,37.37
2022-09-13T06:38:53.807Z,37.33
2022-09-13T06:45:25.536Z,37.33
2022-09-13T06:51:57.125Z,37.35
2022-09-13T06:58:22.755Z,37.33
2022-09-13T07:05:04.455Z,37.3
2022-09-13T07:11:33.704Z,37.29
2022-09-13T07:18:05.753Z,37.28
2022-09-13T07:24:37.558Z,37.32
2022-09-13T07:31:09.804Z,37.32
2022-09-13T07:37:52.780Z,37.29
2022-09-13T07:44:29.786Z,37.24
2022-09-13T07:51:13.631Z,37.35
2022-09-13T07:57:48.876Z,37.22
2022-09-13T08:04:27.071Z,37.23
2022-09-13T08:11:03.265Z,37.17
2022-09-13T08:17:38.226Z,37.18
2022-09-13T08:24:13.726Z,37.17
2022-09-13T08:30:51.809Z,37.15
2022-09-13T08:37:25.099Z,37.16
2022-09-13T08:44:14.743Z,37.1
2022-09-13T08:51:20.721Z,37.16
2022-09-13T08:58:16.180Z,37.24
2022-09-13T09:05:22.660Z,37.19
2022-09-13T09:12:18.370Z,37.19
2022-09-13T09:19:26.754Z,37.2
2022-09-13T09:26:17.712Z,37.27
2022-09-13T09:33:19.216Z,37.29
2022-09-13T09:40:31.992Z,37.3
2022-09-13T09:47:38.383Z,37.16
2022-09-13T09:54:40.839Z,37.19
2022-09-13T10:01:31.241Z,37.22
2022-09-13T10:08:20.868Z,37.16
2022-09-13T10:15:23.183Z,37.09
2022-09-13T10:22:08.352Z,37.08
2022-09-13T10:29:01.135Z,37.17
2022-09-13T10:35:54.483Z,37.1
2022-09-13T10:42:46.331Z,37.11
2022-09-13T10:49:31.786Z,37.01
2022-09-13T10:56:25.795Z,37.06
2022-09-13T11:03:19.884Z,37.11
2022-09-13T11:10:27.700Z,37.17
2022-09-13T11:17:33.709Z,37.07
2022-09-13T11:24:44.050Z,37.07
2022-09-13T11:31:48.130Z,36.87
2022-09-13T11:38:58.677Z,37.01
2022-09-13T11:45:52.086Z,36.82
2022-09-13T11:52:36.441Z,36.97
2022-09-13T11:59:46.734Z,36.83
2022-09-13T12:06:52.867Z,36.95
2022-09-13T12:14:06.686Z,36.82
2022-09-13T12:21:14.789Z,36.88
2022-09-13T12:28:19.351Z,36.95
2022-09-13T12:35:08.052Z,37.01
2022-09-13T12:42:21.356Z,36.91
2022-09-13T12:49:05.102Z,37.04
2022-09-13T12:56:05.874Z,36.97
2022-09-13T13:02:58.088Z,36.84
2022-09-13T13:10:12.758Z,36.87
2022-09-13T13:17:11.837Z,36.82
2022-09-13T13:24:00.883Z,37
2022-09-13T13:30:55.317Z,37.1
2022-09-13T13:37:41.498Z,37.06
2022-09-13T13:44:32.802Z,37.13
2022-09-13T13:51:30.250Z,37.08
2022-09-13T13:58:19.294Z,37.1
2022-09-13T14:05:16.796Z,37.05
2022-09-13T14:12:13.243Z,37.04
2022-09-13T14:19:21.803Z,37.13
2022-09-13T14:26:19.734Z,36.88
2022-09-13T14:32:57.083Z,36.69
2022-09-13T14:39:36.968Z,36.73
2022-09-13T14:46:21.573Z,36.84
2022-09-13T14:53:30.326Z,36.89
2022-09-13T15:00:28.957Z,37.03
2022-09-13T15:07:16.874Z,36.82
2022-09-13T15:14:09.305Z,36.95
2022-09-13T15:21:15.918Z,36.99
2022-09-13T15:28:11.017Z,36.88
2022-09-13T15:34:54.080Z,36.97
2022-09-13T15:41:46.304Z,37.06
2022-09-13T15:48:31.737Z,36.94
2022-09-13T15:55:21.362Z,36.78
2022-09-13T16:02:04.440Z,36.84
2022-09-13T16:08:36.885Z,36.86
2022-09-13T16:15:07.118Z,37.03
2022-09-13T16:21:47.389Z,37.12
2022-09-13T16:28:17.150Z,37.09
2022-09-13T16:34:44.058Z,37.17
2022-09-13T16:41:17.913Z,37.14
2022-09-13T16:47:40.897Z,37.18
2022-09-13T16:54:20.658Z,37.19
2022-09-13T17:00:45.171Z,37.22
2022-09-13T17:07:13.035Z,37.19
2022-09-13T17:13:40.458Z,37.16
2022-09-13T17:20:10.978Z,37.17
2022-09-13T17:26:42.144Z,37.32
2022-09-13T17:33:06.398Z,37.34
2022-09-13T17:39:39.726Z,37.4
2022-09-13T17:46:13.648Z,37.38
2022-09-13T17:52:50.044Z,37.36
2022-09-13T17:59:25.934Z,37.32
2022-09-13T18:05:52.357Z,37.33
2022-09-13T18:12:20.058Z,37.34
2022-09-13T18:18:49.762Z,37.25
2022-09-13T18:25:25.994Z,37.36
2022-09-13T18:31:55.450Z,37.27
2022-09-13T18:38:29.101Z,37.26
2022-09-13T18:45:14.086Z,37.34
2022-09-13T18:51:49.259Z,37.38
2022-09-13T18:58:14.245Z,37.33
2022-09-13T19:04:50.673Z,37.35
2022-09-13T19:11:45.064Z,37.33
2022-09-13T19:18:01.952Z,37.5
2022-09-13T19:24:39.138Z,37.44
2022-09-13T19:31:13.194Z,37.51
2022-09-13T19:37:49.489Z,37.53
2022-09-13T19:44:15.911Z,37.62
2022-09-13T19:50:48.135Z,37.62
2022-09-13T19:57:23.066Z,37.68
2022-09-13T20:03:52.946Z,37.67
2022-09-13T20:10:26.256Z,37.62
2022-09-13T20:16:58.553Z,37.7
2022-09-13T20:23:30.296Z,37.71
2022-09-13T20:30:04.084Z,37.73
2022-09-13T20:36:41.917Z,37.68
2022-09-13T20:43:10.008Z,37.71
2022-09-13T20:49:52.220Z,37.7
2022-09-13T20:56:16.242Z,37.65
2022-09-13T21:02:56.275Z,37.76
2022-09-13T21:09:30.692Z,37.68
2022-09-13T21:16:05.424Z,37.7
2022-09-13T21:22:33.634Z,37.68
2022-09-13T21:29:08.440Z,37.65
2022-09-13T21:35:35.226Z,37.64
2022-09-13T21:42:10.566Z,37.53
2022-09-13T21:48:43.755Z,37.39
2022-09-13T21:55:17.561Z,37.27
2022-09-13T22:01:53.497Z,37.32
2022-09-13T22:08:23.170Z,37.15
2022-09-13T22:15:00.176Z,37.18
2022-09-13T22:21:29.160Z,37.46
2022-09-13T22:28:12.489Z,37.41
2022-09-13T22:34:44.588Z,37.36
2022-09-13T22:41:18.271Z,37.4
2022-09-13T22:47:47.198Z,37.54
2022-09-13T22:54:16.403Z,37.61
2022-09-13T23:00:51.244Z,37.6
2022-09-13T23:07:31.220Z,37.66
2022-09-13T23:14:01.681Z,37.66
2022-09-13T23:20:41.441Z,37.71
2022-09-13T23:27:09.468Z,37.8
2022-09-13T23:33:42.055Z,37.78
2022-09-13T23:40:15.786Z,37.81
2022-09-13T23:46:43.626Z,37.79
2022-09-13T23:53:08.500Z,37.77
2022-09-13T23:59:39.615Z,37.81
